createdAt,value
2023-11-27T00:01:06.010Z,99567.41
2023-11-27T00:03:36.490Z,99571.75
2023-11-27T00:06:09.326Z,99569.28
2023-11-27T00:08:43.290Z,99571.09
2023-11-27T00:11:12.456Z,99562.41
2023-11-27T00:13:43.509Z,99571.25
2023-11-27T00:16:16.770Z,99565.97
2023-11-27T00:18:54.151Z,99561.28
2023-11-27T00:21:29.320Z,99558.25
2023-11-27T00:24:03.777Z,99555.78
2023-11-27T00:26:37.938Z,99548.81
2023-11-27T00:29:08.965Z,99547.38
2023-11-27T00:31:47.661Z,99540.16
2023-11-27T00:34:16.169Z,99538.34
2023-11-27T00:36:49.241Z,99536.81
2023-11-27T00:39:23.076Z,99531.63
2023-11-27T00:41:54.299Z,99542.19
2023-11-27T00:44:22.374Z,99539.63
2023-11-27T00:46:53.091Z,99544.06
2023-11-27T00:49:21.992Z,99528.31
2023-11-27T00:52:06.766Z,99520.47
2023-11-27T00:54:38.842Z,99514.72
2023-11-27T00:57:07.332Z,99517.28
2023-11-27T00:59:40.701Z,99517.38
2023-11-27T01:02:09.694Z,99512.25
2023-11-27T01:04:40.165Z,99503.63
2023-11-27T01:07:12.784Z,99509.38
2023-11-27T01:09:43.246Z,99502.88
2023-11-27T01:12:13.375Z,99497.94
2023-11-27T01:14:43.968Z,99489.19
2023-11-27T01:17:15.335Z,99489.34
2023-11-27T01:19:58.162Z,99487.66
2023-11-27T01:22:32.030Z,99487.66
2023-11-27T01:25:16.733Z,99486.72
2023-11-27T01:27:50.668Z,99487.50
2023-11-27T01:30:20.148Z,99479.06
2023-11-27T01:32:56.247Z,99473.78
2023-11-27T01:35:33.445Z,99475.50
2023-11-27T01:38:14.376Z,99470.31
2023-11-27T01:40:51.079Z,99466.84
2023-11-27T01:43:19.707Z,99458.72
2023-11-27T01:45:54.557Z,99457.13
2023-11-27T01:48:24.212Z,99456.16
2023-11-27T01:50:55.340Z,99451.75
2023-11-27T01:53:25.295Z,99442.97
2023-11-27T01:55:53.433Z,99451.09
2023-11-27T01:58:21.768Z,99447.69
2023-11-27T02:01:04.698Z,99445.22
2023-11-27T02:03:35.606Z,99439.28
2023-11-27T02:06:06.332Z,99441.81
2023-11-27T02:08:39.220Z,99441.44
2023-11-27T02:11:20.901Z,99440.78
2023-11-27T02:13:52.241Z,99441.66
2023-11-27T02:16:21.799Z,99428.34
2023-11-27T02:18:53.139Z,99422.31
2023-11-27T02:21:22.554Z,99418.91
2023-11-27T02:23:53.264Z,99427.69
2023-11-27T02:26:21.365Z,99426.66
2023-11-27T02:28:51.474Z,99423.44
2023-11-27T02:31:28.839Z,99420.88
2023-11-27T02:34:05.664Z,99421.75
2023-11-27T02:36:38.924Z,99412.97
2023-11-27T02:39:21.899Z,99412.22
2023-11-27T02:41:53.087Z,99414.84
2023-11-27T02:44:22.888Z,99413.09
2023-11-27T02:46:54.230Z,99407.13
2023-11-27T02:49:23.233Z,99401.03
2023-11-27T02:52:12.614Z,99395.75
2023-11-27T02:54:42.694Z,99393.19
2023-11-27T02:57:17.585Z,99384.22
2023-11-27T02:59:49.196Z,99374.97
2023-11-27T03:02:21.992Z,99373.22
2023-11-27T03:04:52.235Z,99370.66
2023-11-27T03:07:26.434Z,99363.59
2023-11-27T03:09:58.218Z,99347.16
2023-11-27T03:12:31.406Z,99340.38
2023-11-27T03:15:00.520Z,99330.72
2023-11-27T03:17:31.882Z,99324.47
2023-11-27T03:20:00.434Z,99322.97
2023-11-27T03:22:28.539Z,99329.09
2023-11-27T03:24:58.883Z,99307.97
2023-11-27T03:27:46.193Z,99297.50
2023-11-27T03:30:16.729Z,99289.97
2023-11-27T03:32:47.757Z,99279.34
2023-11-27T03:35:23.605Z,99279.91
2023-11-27T03:37:52.803Z,99266.16
2023-11-27T03:40:22.280Z,99257.38
2023-11-27T03:42:57.224Z,99251.28
2023-11-27T03:45:25.353Z,99230.34
2023-11-27T03:47:53.869Z,99226.97
2023-11-27T03:50:22.002Z,99224.63
2023-11-27T03:52:50.044Z,99218.59
2023-11-27T03:55:22.754Z,99220.47
2023-11-27T03:57:59.548Z,99223.38
2023-11-27T04:00:28.557Z,99231.28
2023-11-27T04:03:18.130Z,99222.53
2023-11-27T04:05:51.486Z,99226.38
2023-11-27T04:08:19.641Z,99230.91
2023-11-27T04:10:50.878Z,99235.50
2023-11-27T04:13:19.876Z,99238.44
2023-11-27T04:15:49.318Z,99246.50
2023-11-27T04:18:18.775Z,99248.50
2023-11-27T04:20:47.386Z,99256.66
2023-11-27T04:23:15.540Z,99248.00
2023-11-27T04:25:46.212Z,99254.22
2023-11-27T04:28:16.094Z,99249.97
2023-11-27T04:30:47.613Z,99250.03
2023-11-27T04:33:16.913Z,99248.97
2023-11-27T04:35:46.132Z,99244.78
2023-11-27T04:38:14.678Z,99249.41
2023-11-27T04:40:46.314Z,99246.34
2023-11-27T04:43:15.718Z,99234.38
2023-11-27T04:45:45.979Z,99241.53
2023-11-27T04:48:15.063Z,99240.59
2023-11-27T04:50:45.119Z,99236.25
2023-11-27T04:53:16.485Z,99227.78
2023-11-27T04:55:44.541Z,99236.44
2023-11-27T04:58:26.697Z,99230.31
2023-11-27T05:00:54.816Z,99222.34
2023-11-27T05:03:22.845Z,99224.28
2023-11-27T05:05:51.908Z,99218.09
2023-11-27T05:08:20.237Z,99216.38
2023-11-27T05:10:50.539Z,99212.91
2023-11-27T05:13:19.297Z,99212.91
2023-11-27T05:15:48.843Z,99213.59
2023-11-27T05:18:18.583Z,99207.94
2023-11-27T05:20:47.038Z,99205.97
2023-11-27T05:23:15.202Z,99201.78
2023-11-27T05:25:43.953Z,99195.88
2023-11-27T05:28:12.944Z,99192.13
2023-11-27T05:30:41.046Z,99186.00
2023-11-27T05:33:11.113Z,99188.81
2023-11-27T05:36:03.056Z,99179.03
2023-11-27T05:38:31.089Z,99170.56
2023-11-27T05:41:02.232Z,99173.09
2023-11-27T05:43:35.141Z,99174.72
2023-11-27T05:46:11.407Z,99167.16
2023-11-27T05:48:44.521Z,99165.13
2023-11-27T05:51:12.694Z,99160.69
2023-11-27T05:53:40.714Z,99147.53
2023-11-27T05:56:11.202Z,99140.59
2023-11-27T05:58:39.232Z,99148.56
2023-11-27T06:01:12.595Z,99132.94
2023-11-27T06:03:46.626Z,99124.97
2023-11-27T06:06:21.567Z,99130.22
2023-11-27T06:08:51.241Z,99122.25
2023-11-27T06:11:29.855Z,99115.19
2023-11-27T06:13:58.081Z,99122.78
2023-11-27T06:16:30.701Z,99118.78
2023-11-27T06:19:11.606Z,99104.72
2023-11-27T06:21:51.038Z,99105.50
2023-11-27T06:24:20.107Z,99094.88
2023-11-27T06:26:49.148Z,99085.19
2023-11-27T06:29:41.384Z,99083.50
2023-11-27T06:32:11.674Z,99086.31
2023-11-27T06:34:42.032Z,99075.78
2023-11-27T06:37:10.233Z,99073.13
2023-11-27T06:39:40.702Z,99068.63
2023-11-27T06:42:34.868Z,99068.91
2023-11-27T06:45:18.938Z,99058.28
2023-11-27T06:48:02.937Z,99054.72
2023-11-27T06:50:38.505Z,99051.16
2023-11-27T06:53:13.669Z,99044.84
2023-11-27T06:55:41.739Z,99038.75
2023-11-27T06:58:09.881Z,99031.59
2023-11-27T07:00:39.453Z,99033.47
2023-11-27T07:03:09.945Z,99030.84
2023-11-27T07:05:42.394Z,99016.16
2023-11-27T07:08:10.547Z,99015.34
2023-11-27T07:10:40.453Z,99013.44
2023-11-27T07:13:11.860Z,99011.44
2023-11-27T07:15:39.995Z,99000.91
2023-11-27T07:18:16.791Z,99001.19
2023-11-27T07:20:58.776Z,99002.81
2023-11-27T07:23:28.174Z,98991.53
2023-11-27T07:26:00.937Z,98987.84
2023-11-27T07:28:29.068Z,98981.53
2023-11-27T07:31:02.928Z,98980.44
2023-11-27T07:33:31.073Z,98966.97
2023-11-27T07:36:01.967Z,98965.38
2023-11-27T07:38:41.118Z,98966.31
2023-11-27T07:41:10.052Z,98960.09
2023-11-27T07:43:38.776Z,98957.34
2023-11-27T07:46:12.348Z,98955.38
2023-11-27T07:48:43.333Z,98953.59
2023-11-27T07:51:13.374Z,98960.16
2023-11-27T07:53:41.960Z,98955.94
2023-11-27T07:56:12.278Z,98951.41
2023-11-27T07:58:42.414Z,98942.66
2023-11-27T08:01:15.177Z,98934.66
2023-11-27T08:03:47.259Z,98934.78
2023-11-27T08:06:21.343Z,98935.22
2023-11-27T08:08:55.228Z,98932.66
2023-11-27T08:11:32.351Z,98929.19
2023-11-27T08:14:00.777Z,98922.25
2023-11-27T08:16:33.686Z,98922.44
2023-11-27T08:19:03.755Z,98915.69
2023-11-27T08:21:33.876Z,98910.66
2023-11-27T08:24:02.013Z,98898.63
2023-11-27T08:26:41.216Z,98891.38
2023-11-27T08:29:09.782Z,98887.78
2023-11-27T08:31:38.381Z,98886.47
2023-11-27T08:34:07.599Z,98878.28
2023-11-27T08:36:40.596Z,98890.41
2023-11-27T08:39:13.446Z,98875.84
2023-11-27T08:41:41.687Z,98868.69
2023-11-27T08:44:10.353Z,98862.41
2023-11-27T08:46:38.600Z,98863.41
2023-11-27T08:49:13.989Z,98858.16
2023-11-27T08:51:50.032Z,98852.59
2023-11-27T08:54:20.384Z,98841.31
2023-11-27T08:56:57.339Z,98838.44
2023-11-27T08:59:26.420Z,98832.97
2023-11-27T09:01:57.646Z,98820.84
2023-11-27T09:04:28.846Z,98819.25
2023-11-27T09:06:58.885Z,98813.88
2023-11-27T09:09:27.038Z,98802.50
2023-11-27T09:11:55.966Z,98805.97
2023-11-27T09:14:24.002Z,98799.84
2023-11-27T09:16:56.767Z,98790.28
2023-11-27T09:19:28.359Z,98798.38
2023-11-27T09:21:58.013Z,98805.22
2023-11-27T09:24:28.342Z,98795.75
2023-11-27T09:26:57.337Z,98780.34
2023-11-27T09:29:25.456Z,98784.75
2023-11-27T09:31:56.678Z,98784.88
2023-11-27T09:34:29.202Z,98777.25
2023-11-27T09:37:02.859Z,98771.47
2023-11-27T09:39:39.906Z,98766.38
2023-11-27T09:42:09.727Z,98761.97
2023-11-27T09:44:38.285Z,98769.53
2023-11-27T09:47:14.409Z,98772.47
2023-11-27T09:49:52.539Z,98760.31
2023-11-27T09:52:28.966Z,98768.72
2023-11-27T09:55:06.951Z,98759.09
2023-11-27T09:57:47.852Z,98752.78
2023-11-27T10:00:20.093Z,98753.66
2023-11-27T10:02:53.227Z,98746.41
2023-11-27T10:05:26.137Z,98743.84
2023-11-27T10:08:01.674Z,98728.81
2023-11-27T10:10:37.781Z,98732.94
2023-11-27T10:13:32.664Z,98722.72
2023-11-27T10:16:10.538Z,98713.63
2023-11-27T10:18:39.594Z,98708.66
2023-11-27T10:21:11.515Z,98706.97
2023-11-27T10:23:43.517Z,98710.44
2023-11-27T10:26:14.280Z,98701.94
2023-11-27T10:29:04.532Z,98698.91
2023-11-27T10:31:39.353Z,98687.13
2023-11-27T10:34:12.298Z,98686.06
2023-11-27T10:36:40.669Z,98675.28
2023-11-27T10:39:16.776Z,98667.44
2023-11-27T10:41:47.747Z,98662.44
2023-11-27T10:44:19.267Z,98650.72
2023-11-27T10:46:48.529Z,98649.88
2023-11-27T10:49:19.304Z,98646.97
2023-11-27T10:51:48.964Z,98648.72
2023-11-27T10:54:18.409Z,98634.97
2023-11-27T10:56:50.252Z,98617.31
2023-11-27T10:59:23.210Z,98618.34
2023-11-27T11:02:00.021Z,98607.66
2023-11-27T11:04:36.618Z,98601.75
2023-11-27T11:07:10.990Z,98593.97
2023-11-27T11:09:45.721Z,98581.56
2023-11-27T11:12:20.261Z,98581.41
2023-11-27T11:14:49.615Z,98567.50
2023-11-27T11:17:31.045Z,98563.56
2023-11-27T11:20:15.016Z,98564.78
2023-11-27T11:22:57.339Z,98558.69
2023-11-27T11:25:33.141Z,98555.31
2023-11-27T11:28:13.329Z,98549.69
2023-11-27T11:30:41.737Z,98548.91
2023-11-27T11:33:20.102Z,98536.25
2023-11-27T11:35:52.145Z,98533.06
2023-11-27T11:38:27.691Z,98525.94
2023-11-27T11:40:56.036Z,98525.28
2023-11-27T11:43:27.979Z,98518.19
2023-11-27T11:45:58.280Z,98512.53
2023-11-27T11:48:38.738Z,98517.31
2023-11-27T11:51:16.881Z,98507.53
2023-11-27T11:53:49.410Z,98498.91
2023-11-27T11:56:27.199Z,98490.03
2023-11-27T11:59:01.836Z,98489.16
2023-11-27T12:01:33.863Z,98484.78
2023-11-27T12:04:07.446Z,98476.69
2023-11-27T12:06:36.715Z,98472.38
2023-11-27T12:09:05.255Z,98465.16
2023-11-27T12:11:36.253Z,98468.06
2023-11-27T12:14:33.887Z,98458.28
2023-11-27T12:17:03.677Z,98454.09
2023-11-27T12:19:34.365Z,98451.16
2023-11-27T12:22:06.326Z,98438.75
2023-11-27T12:24:34.396Z,98436.13
2023-11-27T12:27:08.146Z,98435.28
2023-11-27T12:29:40.356Z,98431.94
2023-11-27T12:32:10.427Z,98431.44
2023-11-27T12:34:42.199Z,98432.91
2023-11-27T12:37:11.597Z,98437.22
2023-11-27T12:39:39.780Z,98435.88
2023-11-27T12:42:15.669Z,98450.78
2023-11-27T12:44:51.232Z,98438.56
2023-11-27T12:47:22.905Z,98428.25
2023-11-27T12:49:54.350Z,98418.97
2023-11-27T12:52:25.563Z,98427.72
2023-11-27T12:54:56.852Z,98415.75
2023-11-27T12:57:27.347Z,98415.28
2023-11-27T12:59:58.661Z,98410.03
2023-11-27T13:02:32.258Z,98403.38
2023-11-27T13:05:00.884Z,98401.91
2023-11-27T13:07:28.991Z,98395.16
2023-11-27T13:10:08.669Z,98398.84
2023-11-27T13:12:37.100Z,98390.09
2023-11-27T13:15:11.682Z,98387.19
2023-11-27T13:17:40.844Z,98381.09
2023-11-27T13:20:19.254Z,98373.34
2023-11-27T13:22:47.455Z,98369.91
2023-11-27T13:25:17.027Z,98361.81
2023-11-27T13:27:48.347Z,98354.03
2023-11-27T13:30:29.156Z,98350.16
2023-11-27T13:33:00.347Z,98339.56
2023-11-27T13:35:33.844Z,98326.53
2023-11-27T13:38:06.550Z,98328.84
2023-11-27T13:40:36.749Z,98330.53
2023-11-27T13:43:15.912Z,98321.91
2023-11-27T13:45:52.669Z,98308.06
2023-11-27T13:48:24.160Z,98313.31
2023-11-27T13:50:58.670Z,98305.53
2023-11-27T13:53:28.044Z,98301.66
2023-11-27T13:56:04.467Z,98292.06
2023-11-27T13:58:46.145Z,98289.25
2023-11-27T14:01:20.457Z,98279.06
2023-11-27T14:04:00.163Z,98274.72
2023-11-27T14:06:29.961Z,98274.88
2023-11-27T14:09:05.214Z,98275.78
2023-11-27T14:11:35.921Z,98270.97
2023-11-27T14:14:09.459Z,98267.28
2023-11-27T14:17:16.233Z,98266.25
2023-11-27T14:20:01.891Z,98254.69
2023-11-27T14:23:01.679Z,98261.72
2023-11-27T14:25:51.230Z,98244.38
2023-11-27T14:28:32.313Z,98249.28
2023-11-27T14:31:03.715Z,98244.13
2023-11-27T14:33:35.824Z,98233.63
2023-11-27T14:36:05.246Z,98228.56
2023-11-27T14:38:33.479Z,98232.56
2023-11-27T14:41:02.028Z,98232.72
2023-11-27T14:43:34.274Z,98229.81
2023-11-27T14:46:13.583Z,98228.78
2023-11-27T14:48:44.788Z,98222.38
2023-11-27T14:51:12.904Z,98219.66
2023-11-27T14:53:54.013Z,98225.22
2023-11-27T14:56:29.582Z,98208.31
2023-11-27T14:59:09.230Z,98212.72
2023-11-27T15:01:44.045Z,98211.34
2023-11-27T15:04:17.327Z,98206.19
2023-11-27T15:06:47.521Z,98200.31
2023-11-27T15:09:23.593Z,98201.38
2023-11-27T15:11:55.194Z,98206.41
2023-11-27T15:14:24.899Z,98203.91
2023-11-27T15:16:56.158Z,98197.09
2023-11-27T15:19:28.990Z,98204.31
2023-11-27T15:21:59.459Z,98190.97
2023-11-27T15:24:38.497Z,98192.31
2023-11-27T15:27:08.431Z,98191.91
2023-11-27T15:29:37.340Z,98188.75
2023-11-27T15:32:09.210Z,98186.22
2023-11-27T15:34:43.071Z,98181.06
2023-11-27T15:37:11.322Z,98178.56
2023-11-27T15:39:47.379Z,98171.31
2023-11-27T15:45:00.755Z,98163.44
2023-11-27T15:47:29.422Z,98169.75
2023-11-27T15:50:01.986Z,98168.69
2023-11-27T15:52:47.834Z,98170.78
2023-11-27T15:55:38.969Z,98165.00
2023-11-27T15:58:07.659Z,98170.78
2023-11-27T16:00:43.436Z,98161.06
2023-11-27T16:03:18.465Z,98155.66
2023-11-27T16:05:50.417Z,98160.69
2023-11-27T16:08:19.720Z,98160.78
2023-11-27T16:10:52.273Z,98165.94
2023-11-27T16:13:23.163Z,98164.91
2023-11-27T16:15:56.014Z,98158.06
2023-11-27T16:18:40.664Z,98159.22
2023-11-27T16:21:16.343Z,98159.31
2023-11-27T16:23:45.262Z,98151.44
2023-11-27T16:26:13.519Z,98153.44
2023-11-27T16:28:43.728Z,98148.50
2023-11-27T16:31:14.009Z,98143.91
2023-11-27T16:33:42.123Z,98147.25
2023-11-27T16:36:14.304Z,98133.22
2023-11-27T16:38:42.406Z,98133.59
2023-11-27T16:41:10.482Z,98128.91
2023-11-27T16:43:45.928Z,98130.38
2023-11-27T16:46:15.055Z,98128.06
2023-11-27T16:48:43.341Z,98128.38
2023-11-27T16:51:13.966Z,98121.94
2023-11-27T16:53:42.171Z,98124.28
2023-11-27T16:56:11.108Z,98111.91
2023-11-27T16:58:40.094Z,98108.47
2023-11-27T17:01:08.226Z,98115.78
2023-11-27T17:03:38.657Z,98108.31
2023-11-27T17:06:10.280Z,98096.81
2023-11-27T17:08:39.832Z,98100.06
2023-11-27T17:11:09.185Z,98096.72
2023-11-27T17:13:39.131Z,98095.66
2023-11-27T17:16:08.081Z,98092.50
2023-11-27T17:18:36.790Z,98082.00
2023-11-27T17:21:06.579Z,98084.94
2023-11-27T17:23:36.343Z,98077.28
2023-11-27T17:26:07.001Z,98076.03
2023-11-27T17:28:35.217Z,98078.22
2023-11-27T17:31:03.402Z,98079.16
2023-11-27T17:33:33.026Z,98082.22
2023-11-27T17:36:01.077Z,98072.78
2023-11-27T17:38:35.554Z,98073.91
2023-11-27T17:41:06.099Z,98073.84
2023-11-27T17:43:35.175Z,98078.94
2023-11-27T17:46:04.422Z,98073.91
2023-11-27T17:48:33.386Z,98076.75
2023-11-27T17:51:01.684Z,98068.97
2023-11-27T17:53:30.856Z,98061.75
2023-11-27T17:56:04.596Z,98051.91
2023-11-27T17:58:35.993Z,98052.94
2023-11-27T18:01:06.879Z,98059.34
2023-11-27T18:03:36.793Z,98059.53
2023-11-27T18:06:05.309Z,98060.59
2023-11-27T18:08:36.242Z,98063.75
2023-11-27T18:11:07.384Z,98059.44
2023-11-27T18:13:40.889Z,98060.91
2023-11-27T18:16:11.569Z,98052.72
2023-11-27T18:18:40.942Z,98049.78
2023-11-27T18:21:09.784Z,98045.28
2023-11-27T18:23:38.485Z,98050.75
2023-11-27T18:26:10.052Z,98041.81
2023-11-27T18:28:39.661Z,98046.75
2023-11-27T18:31:08.247Z,98041.94
2023-11-27T18:33:40.304Z,98038.78
2023-11-27T18:36:13.081Z,98042.16
2023-11-27T18:38:43.324Z,98038.78
2023-11-27T18:41:11.597Z,98036.56
2023-11-27T18:43:42.195Z,98034.16
2023-11-27T18:46:11.011Z,98041.19
2023-11-27T18:48:39.041Z,98027.53
2023-11-27T18:51:07.912Z,98026.28
2023-11-27T18:53:36.771Z,98035.41
2023-11-27T18:56:06.160Z,98029.13
2023-11-27T18:58:34.603Z,98028.91
2023-11-27T19:01:10.676Z,98024.59
2023-11-27T19:03:38.771Z,98031.13
2023-11-27T19:06:08.055Z,98023.56
2023-11-27T19:08:37.587Z,98028.59
2023-11-27T19:11:08.770Z,98030.78
2023-11-27T19:13:37.531Z,98030.06
2023-11-27T19:16:12.832Z,98031.22
2023-11-27T19:18:45.118Z,98022.41
2023-11-27T19:21:16.675Z,98025.88
2023-11-27T19:23:45.909Z,98027.88
2023-11-27T19:26:16.422Z,98024.09
2023-11-27T19:28:49.121Z,98024.28
2023-11-27T19:31:32.662Z,98029.13
2023-11-27T19:34:04.290Z,98019.16
2023-11-27T19:36:32.650Z,98023.44
2023-11-27T19:39:08.360Z,98025.88
2023-11-27T19:41:39.263Z,98022.41
2023-11-27T19:44:18.565Z,98024.91
2023-11-27T19:46:50.242Z,98023.66
2023-11-27T19:49:23.011Z,98017.47
2023-11-27T19:51:52.295Z,98017.59
2023-11-27T19:54:21.116Z,98015.50
2023-11-27T19:56:49.356Z,98008.88
2023-11-27T19:59:17.484Z,98010.53
2023-11-27T20:01:47.533Z,98013.91
2023-11-27T20:04:15.764Z,98011.19
2023-11-27T20:06:47.840Z,98006.78
2023-11-27T20:09:16.946Z,98012.63
2023-11-27T20:11:45.708Z,98009.41
2023-11-27T20:14:16.436Z,98014.97
2023-11-27T20:16:45.065Z,98010.88
2023-11-27T20:19:16.196Z,98012.75
2023-11-27T20:21:44.941Z,98018.63
2023-11-27T20:24:13.596Z,98010.25
2023-11-27T20:29:48.951Z,98012.75
2023-11-27T20:32:17.619Z,98008.13
2023-11-27T20:34:47.279Z,98013.91
2023-11-27T20:37:16.031Z,98011.72
2023-11-27T20:39:46.296Z,98006.03
2023-11-27T20:42:15.036Z,98015.06
2023-11-27T20:44:56.054Z,98013.16
2023-11-27T20:47:28.342Z,98021.78
2023-11-27T20:49:58.311Z,98019.44
2023-11-27T20:52:28.039Z,98018.09
2023-11-27T20:55:05.896Z,98024.09
2023-11-27T20:57:37.571Z,98015.78
2023-11-27T21:00:24.089Z,98018.63
2023-11-27T21:02:56.083Z,98020.31
2023-11-27T21:05:49.782Z,98012.09
2023-11-27T21:08:22.556Z,98011.28
2023-11-27T21:11:09.679Z,98011.38
2023-11-27T21:13:38.391Z,98018.63
2023-11-27T21:16:07.283Z,98018.94
2023-11-27T21:19:10.217Z,98022.41
2023-11-27T21:21:45.842Z,98015.59
2023-11-27T21:24:19.302Z,98014.84
2023-11-27T21:26:47.384Z,98022.72
2023-11-27T21:29:15.416Z,98017.81
2023-11-27T21:32:07.563Z,98025.88
2023-11-27T21:34:51.210Z,98018.53
2023-11-27T21:37:27.743Z,98019.03
2023-11-27T21:40:46.862Z,98016.41
2023-11-27T21:43:15.957Z,98016.00
2023-11-27T21:46:01.602Z,98019.13
2023-11-27T21:48:56.697Z,98032.25
2023-11-27T21:51:25.853Z,98023.56
2023-11-27T21:53:55.405Z,98028.59
2023-11-27T22:00:10.956Z,98033.22
2023-11-27T22:05:53.960Z,98036.47
2023-11-27T22:08:30.569Z,98036.47
2023-11-27T22:11:00.086Z,98037.63
2023-11-27T22:13:28.263Z,98042.16
2023-11-27T22:15:58.777Z,98041.91
2023-11-27T22:18:26.812Z,98031.75
2023-11-27T22:20:55.720Z,98042.88
2023-11-27T22:24:17.014Z,98047.91
2023-11-27T22:29:48.184Z,98047.69
2023-11-27T22:32:34.185Z,98057.88
2023-11-27T22:41:13.777Z,98059.13
2023-11-27T22:44:33.728Z,98063.53
2023-11-27T22:53:17.712Z,98072.13
2023-11-27T22:56:22.102Z,98068.91
2023-11-27T22:59:16.518Z,98083.47
2023-11-27T23:02:14.614Z,98079.25
2023-11-27T23:05:01.127Z,98084.31
2023-11-27T23:08:09.161Z,98082.00
2023-11-27T23:23:14.042Z,98096.88
2023-11-27T23:25:51.879Z,98105.16
2023-11-27T23:31:14.382Z,98103.28
2023-11-27T23:34:39.192Z,98107.50
2023-11-27T23:37:34.140Z,98114.00
2023-11-27T23:40:16.307Z,98112.84
2023-11-27T23:46:00.156Z,98122.59
2023-11-27T23:48:56.513Z,98121.03
2023-11-27T23:52:14.787Z,98118.91
2023-11-27T23:55:10.935Z,98131.72
2023-11-27T23:57:42.823Z,98138.56
